Kennedale, Texas
Current Conditions -  °F | °C
As of 7:35 PM on Monday 24 Nov 2014 (Local Time) from KFWS Reporting Station
Clear Clear  
Wind Chill: 44°   Ceiling: Unl
Heat Index: 44°   Visibility: 10mi
Dew Point: 31°   Wind: 0mph
Humidity: 61%   Direction: NA
Pressure: 30.13"   Gusts: NA
Location:  32.65°N, 97.23°W
Report Text: KFWS 250135Z AUTO 00000KT 10SM CLR 07/00 A3013 RMK AO2 T00651005
Loading
Personal Weather Stations






























Interactive Weather Map New forecast layout! Learn more

10-Day Weather Forecast

Advertisements
Track Severe Weather on mobile